TAF Text Data
IDs:
Format:
Raw Decoded Include METAR

Data at: 1130 UTC 25 Jun 2019

Region: TOP
KATL 251127Z 2512/2618 29007KT P6SM FEW040 SCT120 BKN250
  FM251400 30009KT P6SM FEW045 BKN250
  FM251700 32012G23KT P6SM SCT050 SCT250
  FM260000 32007KT P6SM FEW250
  FM261400 02006KT P6SM SCT250


KBOS 251129Z 2512/2618 14005KT P6SM SCT080 BKN250
  FM251700 13008KT 5SM -SHRA BR OVC025
  FM252000 13010KT 2SM -SHRA OVC010
  FM260500 23004KT 1SM BR BKN003
  FM260900 32004KT 3SM BR BKN025
  FM261200 35005KT P6SM BKN015


KBWI 251124Z 2512/2618 21005KT P6SM SCT016 BKN050
  FM251500 31010KT P6SM FEW050 BKN250
  FM260100 30007KT P6SM SCT250


KCLE 250911Z 2509/2612 23011G17KT P6SM SCT250
  FM251700 25013G20KT P6SM SCT100
  FM260000 21008KT P6SM FEW250


KCLT 251050Z 2511/2612 28005KT P6SM FEW050 SCT200
  FM260000 VRB03KT P6SM SCT200


KCVG 250855Z 2509/2612 26005KT P6SM FEW250
  FM251400 26006KT P6SM SKC
  FM251700 25008KT P6SM FEW040
  FM252300 23006KT P6SM SKC
  FM260800 20004KT P6SM SCT150


KDCA 251124Z 2512/2618 28006KT P6SM FEW012 BKN130
  FM251400 31010KT P6SM FEW050 SCT250
  FM260100 31007KT P6SM FEW060 SCT250


KDEN 250902Z 2509/2612 19011KT P6SM FEW150 FEW220
  FM252000 30010KT P6SM FEW090 SCT200
  FM252200 26012KT P6SM VCTS FEW090CB BKN150
  TEMPO 2522/2524 VRB20G32KT
  FM260100 20012KT P6SM FEW100 BKN150


KDFW 251035Z 2511/2612 14006KT P6SM FEW010 OVC250
  TEMPO 2511/2513 BKN005
  FM251300 17007KT P6SM SCT025 BKN060
  FM251800 17010KT P6SM SCT060 SCT150
  FM252200 18012KT P6SM VCTS BKN070CB
  FM260100 15011KT P6SM SCT090 BKN300


KDTW 251120Z 2512/2618 23010KT P6SM SKC
  FM251600 25012G20KT P6SM FEW050
  FM260000 24008KT P6SM SCT250
  FM260600 22008KT P6SM BKN200


KEWR 251009Z 2510/2612 VRB04KT 5SM -SHRA BR SCT009 OVC012
  TEMPO 2510/2512 2SM TSRA BR BKN009CB
  FM251600 24006KT P6SM VCTS BKN030CB OVC050
  FM251900 24009KT P6SM BKN050
  FM260200 32008KT P6SM SCT050


KFLL 250855Z 2509/2612 VRB03KT P6SM SKC
  FM251300 26006KT P6SM FEW030
  FM251700 12010KT P6SM SCT035 BKN060
  FM260100 VRB03KT P6SM FEW030 SCT250


KIAD 251124Z 2512/2618 30007KT P6SM FEW015 BKN140
  FM251400 31010G18KT P6SM FEW050 SCT250
  FM260000 31007KT P6SM FEW045 SCT250


KIAH 251127Z 2512/2618 VRB05KT P6SM VCTS SCT027CB BKN040 OVC250
  TEMPO 2512/2514 4SM TSRA BKN025CB
  FM251400 13009KT P6SM VCTS SCT025CB BKN045
  TEMPO 2514/2517 VRB15G25KT 3SM TSRA BKN025CB
  FM252100 14010KT P6SM VCTS SCT035CB SCT080 BKN150
  FM260400 14008KT P6SM SCT025 BKN140
  FM261000 14006KT P6SM BKN020
  FM261600 13010KT P6SM SCT035 BKN150


KJFK 251007Z 2510/2612 17008KT 4SM -SHRA BR BKN006
  TEMPO 2510/2512 2SM TSRA BR BKN009CB OVC015
  FM251600 19009KT P6SM VCTS BKN025CB OVC040
  FM251900 21009KT P6SM BKN040
  FM252300 29009KT P6SM BKN050
  FM260200 33007KT P6SM SCT050


KLAS 250856Z 2509/2612 19008KT P6SM FEW250
  FM251900 19017G24KT P6SM FEW200
  FM260400 20012KT P6SM SCT200


KLAX 251120Z 2512/2618 VRB03KT P6SM OVC016
  FM251800 25008KT P6SM OVC015
  FM252100 26012KT P6SM OVC022
  FM260400 26006KT P6SM BKN012
  FM260900 VRB03KT P6SM OVC015
  FM261700 23006KT P6SM OVC020


KLGA 251008Z 2510/2612 14007KT 5SM -SHRA BR BKN007
  TEMPO 2510/2512 2SM TSRA BR BKN009CB
  FM251600 18005KT P6SM VCTS BKN025CB OVC040
  FM251900 21006KT P6SM BKN040
  FM252300 30008KT P6SM BKN050
  FM260200 34006KT P6SM SCT050


KMCO 251127Z 2512/2618 27003KT P6SM FEW250
  FM251500 30008KT P6SM SCT040 SCT250
  FM252100 32009KT P6SM VCTS SCT050CB SCT250
  FM260300 26004KT P6SM SCT080 BKN250
  FM261700 05006KT P6SM SCT035 SCT250


KMDW 250900Z 2509/2612 24009KT P6SM FEW060
  FM251600 24015G24KT P6SM SCT080
  FM260100 23011KT P6SM SCT050 BKN150


KMEM 251120Z 2512/2618 23005KT P6SM SCT250
  FM251400 22006KT P6SM SCT040 SCT250
  FM260100 19005KT P6SM FEW030 SCT100 SCT250
  FM261300 23006KT P6SM SCT050 BKN200


KMIA 250855Z 2509/2612 VRB03KT P6SM FEW250
  FM251600 13008KT P6SM SCT035 BKN060
  FM260100 VRB03KT P6SM FEW030 SCT250


KMSP 251120Z 2512/2618 23006KT P6SM FEW100 SCT250
  FM251700 27013G22KT P6SM FEW050
  FM260100 27009KT P6SM SKC
  FM261000 25005KT P6SM SCT250
  FM261600 23007KT P6SM SCT070 BKN180


KORD 250900Z 2509/2612 24009KT P6SM FEW060
  FM251600 24015G24KT P6SM SCT080
  FM260100 23011KT P6SM SCT050 BKN150


KPDX 251120Z 2512/2612 VRB04KT P6SM BKN090
  FM251400 00000KT P6SM VCSH SCT060 BKN120
  FM251700 27006KT P6SM BKN070
  FM252000 20005KT P6SM VCSH BKN040
  FM260300 29005KT P6SM VCSH BKN050


KPHL 251123Z 2512/2618 20004KT P6SM SCT015 BKN045
  TEMPO 2512/2513 BKN015 OVC045
  FM251300 23006KT P6SM BKN035
  FM251600 27010G18KT P6SM SCT045
  FM260000 28008KT P6SM BKN250
  FM260400 33006KT P6SM SCT250
  FM261400 28006KT P6SM SCT050


KPHX 251120Z 2512/2618 11006KT P6SM SKC
  FM251900 19006KT P6SM FEW250
  FM252300 27011G18KT P6SM SCT250
  FM260400 26008KT P6SM FEW250
  FM261000 11006KT P6SM FEW250


KPIT 251127Z 2512/2618 25010KT P6SM SCT015
  FM251400 25012G20KT P6SM SCT035
  FM260100 VRB03KT P6SM SKC


KSAN 251120Z 2512/2618 30004KT P6SM OVC012
  FM251900 25009KT P6SM BKN017
  FM260200 23004KT P6SM OVC014


KSEA 251130Z 2512/2618 03008KT P6SM SCT040 SCT200
  FM251800 29005KT P6SM SCT120 BKN200
  FM252300 25006KT P6SM BKN120 OVC200
  FM260400 25007KT P6SM BKN100 OVC120
  FM260700 23003KT P6SM BKN060 OVC120


KSFO 251122Z 2512/2618 28008KT P6SM FEW013 SCT200
  TEMPO 2512/2516 SCT012
  FM251600 29011KT P6SM FEW012 SCT200
  FM252000 29015G20KT P6SM FEW200
  FM252200 28019G25KT P6SM SCT200
  FM260500 28015KT P6SM FEW015 SCT200
  FM261200 27010KT P6SM FEW012 SCT200


KSLC 251120Z 2512/2618 16008KT P6SM SCT200
  FM251800 18015G23KT P6SM FEW100 BKN200
  FM260000 30011G18KT P6SM SCT090 BKN150
  FM260500 15006KT P6SM SCT150


KSTL 251120Z 2512/2618 24005KT P6SM SKC
  FM251600 21010KT P6SM SCT100
  FM251800 22012G19KT P6SM FEW100
  FM260000 19007KT P6SM SCT150
  FM261500 24005KT P6SM FEW250


KTPA 250903Z 2509/2612 29003KT P6SM FEW250
  FM251400 29007KT P6SM SCT250
  FM252000 29012KT P6SM FEW050
  FM260200 31004KT P6SM FEW250